Time;durP1;ratioP1;P1;durP2;ratioP2;P2;SDS_P1;SDS_P2;PMS_P1;PMS_P2;Temp;Humidity;BMP_temperature;BMP_pressure;BME280_temperature;BME280_humidity;BME280_pressure;Samples;Min_cycle;Max_cycle;Signal;HPM_P1;HPM_P2
2022/07/14 00:01:02;;;;;;;1.70;1.10;;;;;;;21.47;79.34;100487.69;4960577;28;20183;-76
2022/07/14 00:03:28;;;;;;;1.30;1.20;;;;;;;21.40;79.51;100488.09;4967706;28;20174;-76
2022/07/14 00:05:54;;;;;;;2.17;1.10;;;;;;;21.34;79.92;100499.75;4965577;28;20202;-75
2022/07/14 00:08:19;;;;;;;1.07;1.00;;;;;;;21.27;80.47;100496.59;4967420;28;20205;-77
2022/07/14 00:10:44;;;;;;;2.63;1.40;;;;;;;21.21;77.96;100490.78;4968282;28;20193;-75
2022/07/14 00:13:10;;;;;;;1.93;1.30;;;;;;;21.10;77.66;100499.25;4958754;28;20197;-75
2022/07/14 00:15:36;;;;;;;2.37;1.07;;;;;;;20.96;77.57;100489.38;4963131;28;20202;-73
2022/07/14 00:18:02;;;;;;;1.40;1.20;;;;;;;20.85;78.64;100489.91;4963957;28;20202;-73
2022/07/14 00:20:28;;;;;;;1.30;1.20;;;;;;;20.77;79.70;100494.69;4961539;28;20185;-74
2022/07/14 00:22:56;;;;;;;1.33;1.10;;;;;;;20.73;81.17;100498.38;4972476;28;20181;-75
2022/07/14 00:25:23;;;;;;;1.53;1.30;;;;;;;20.66;81.39;100508.31;4970254;28;20646;-75
2022/07/14 00:27:48;;;;;;;1.67;1.10;;;;;;;20.57;81.48;100506.97;4963770;28;20340;-75
2022/07/14 00:30:13;;;;;;;1.93;1.10;;;;;;;20.50;82.03;100510.81;4965489;28;20264;-74
2022/07/14 00:32:39;;;;;;;1.10;1.00;;;;;;;20.43;82.30;100515.50;4962606;28;20272;-77
2022/07/14 00:35:05;;;;;;;1.10;1.00;;;;;;;20.39;83.06;100519.22;4966941;28;20213;-74
2022/07/14 00:37:30;;;;;;;2.60;1.30;;;;;;;20.32;83.39;100508.16;4961687;28;20574;-75
2022/07/14 00:39:56;;;;;;;1.33;1.23;;;;;;;20.24;83.35;100505.00;4966746;28;20193;-75
2022/07/14 00:42:39;;;;;;;1.20;1.10;;;;;;;20.18;83.31;100505.28;4967967;28;20184;-76
2022/07/14 00:45:07;;;;;;;1.40;1.10;;;;;;;20.13;83.86;100504.66;4966111;28;20181;-77
2022/07/14 00:47:33;;;;;;;2.30;1.27;;;;;;;20.09;84.96;100507.41;4967247;28;20619;-75
2022/07/14 00:49:59;;;;;;;1.17;1.00;;;;;;;20.07;85.42;100511.03;4967348;28;20197;-74
2022/07/14 00:52:27;;;;;;;1.20;1.10;;;;;;;20.04;86.79;100513.78;4960238;28;20329;-75
2022/07/14 00:54:53;;;;;;;1.40;1.10;;;;;;;19.98;87.02;100500.91;4966097;28;20192;-76
2022/07/14 00:57:18;;;;;;;1.00;0.90;;;;;;;19.92;86.98;100502.91;4958182;28;20213;-77
2022/07/14 00:59:45;;;;;;;1.10;1.00;;;;;;;19.87;87.14;100502.25;4966224;28;20192;-74
2022/07/14 01:02:11;;;;;;;0.97;0.97;;;;;;;19.84;87.39;100504.16;4958809;28;20553;-75
2022/07/14 01:04:36;;;;;;;1.10;1.00;;;;;;;19.78;87.88;100500.88;4960165;28;20201;-75
2022/07/14 01:07:02;;;;;;;1.27;0.90;;;;;;;19.78;88.90;100503.50;4964431;28;20202;-74
2022/07/14 01:09:28;;;;;;;1.30;1.00;;;;;;;19.72;89.52;100501.16;4966937;28;20189;-75
2022/07/14 01:11:53;;;;;;;1.30;1.20;;;;;;;19.64;90.10;100496.22;4970029;28;20178;-77
2022/07/14 01:14:18;;;;;;;1.53;1.20;;;;;;;19.56;91.02;100494.84;4965068;28;20190;-74
2022/07/14 01:16:44;;;;;;;1.37;1.10;;;;;;;19.48;91.49;100501.28;4960654;28;20711;-74
2022/07/14 01:19:09;;;;;;;2.03;1.10;;;;;;;19.41;91.70;100497.22;4966867;28;20189;-76
2022/07/14 01:21:34;;;;;;;1.73;1.30;;;;;;;19.37;92.51;100492.16;4967519;28;20266;-73
2022/07/14 01:24:00;;;;;;;2.07;1.30;;;;;;;19.33;93.17;100497.56;4962629;28;20705;-74
2022/07/14 01:26:25;;;;;;;1.20;1.10;;;;;;;19.31;93.51;100488.88;4968348;28;20208;-75
2022/07/14 01:28:50;;;;;;;2.23;1.40;;;;;;;19.28;94.34;100490.78;4966657;28;20201;-74
2022/07/14 01:31:16;;;;;;;2.53;1.30;;;;;;;19.22;94.49;100481.38;4968138;28;20248;-75
2022/07/14 01:33:41;;;;;;;2.63;1.73;;;;;;;19.16;94.77;100490.38;4962838;28;20195;-74
2022/07/14 01:36:07;;;;;;;3.63;1.77;;;;;;;19.10;94.38;100481.91;4959083;28;20189;-74
2022/07/14 01:38:32;;;;;;;1.40;1.30;;;;;;;19.01;93.76;100477.88;4963749;28;20296;-77
2022/07/14 01:40:57;;;;;;;1.67;1.40;;;;;;;18.93;93.69;100472.94;4965483;28;20219;-74
2022/07/14 01:43:23;;;;;;;2.20;1.40;;;;;;;18.87;94.36;100471.41;4965274;28;20268;-74
2022/07/14 01:45:49;;;;;;;1.93;1.30;;;;;;;18.80;94.58;100480.44;4964297;28;20185;-75
2022/07/14 01:48:14;;;;;;;1.57;1.23;;;;;;;18.71;94.29;100476.44;4961041;28;20310;-75
2022/07/14 01:50:39;;;;;;;2.47;1.20;;;;;;;18.62;93.39;100481.19;4958945;28;20184;-74
2022/07/14 01:53:04;;;;;;;1.30;1.20;;;;;;;18.54;93.13;100477.09;4964742;28;20551;-75
2022/07/14 01:55:30;;;;;;;2.03;1.30;;;;;;;18.49;92.75;100473.81;4965840;28;20617;-75
2022/07/14 01:57:55;;;;;;;1.20;1.10;;;;;;;18.47;92.90;100474.75;4956229;28;20219;-75
2022/07/14 02:00:21;;;;;;;2.27;1.37;;;;;;;18.47;92.98;100480.00;4967911;28;20297;-75
2022/07/14 02:02:46;;;;;;;1.27;1.17;;;;;;;18.49;93.24;100476.44;4966931;28;20208;-75
2022/07/14 02:05:11;;;;;;;1.47;1.33;;;;;;;18.49;93.17;100475.56;4965450;28;20257;-75
2022/07/14 02:07:37;;;;;;;1.50;1.40;;;;;;;18.47;93.61;100474.75;4961247;28;20213;-75
2022/07/14 02:12:48;;;;;;;1.77;1.30;;;;;;;18.43;94.59;100468.78;4964212;28;20197;-75
2022/07/14 02:15:14;;;;;;;1.40;1.30;;;;;;;18.41;95.29;100468.88;4963713;28;20186;-77
2022/07/14 02:17:39;;;;;;;1.23;1.13;;;;;;;18.39;94.81;100472.44;4965539;28;20222;-76
2022/07/14 02:20:05;;;;;;;1.50;1.40;;;;;;;18.35;94.52;100468.25;4963912;28;20195;-75
2022/07/14 02:22:30;;;;;;;1.83;1.20;;;;;;;18.31;94.67;100456.16;4962007;28;20198;-77
2022/07/14 02:24:56;;;;;;;3.63;1.50;;;;;;;18.28;94.69;100463.22;4965283;28;20605;-77
2022/07/14 02:27:22;;;;;;;2.07;1.10;;;;;;;18.28;94.80;100465.00;4962338;28;20287;-75
2022/07/14 02:29:48;;;;;;;1.43;1.10;;;;;;;18.30;95.56;100459.69;4955345;28;20714;-76
2022/07/14 02:32:13;;;;;;;1.13;1.10;;;;;;;18.30;95.86;100451.84;4960196;28;20200;-74
2022/07/14 02:34:39;;;;;;;2.30;1.03;;;;;;;18.32;96.77;100453.47;4957726;28;20182;-75
2022/07/14 02:37:04;;;;;;;1.40;1.30;;;;;;;18.32;97.58;100445.63;4959553;28;20587;-76
2022/07/14 02:39:30;;;;;;;1.80;1.13;;;;;;;18.31;98.12;100448.31;4963556;28;20178;-75
2022/07/14 02:41:56;;;;;;;3.30;1.30;;;;;;;18.23;98.45;100441.59;4960858;28;20209;-75
2022/07/14 02:44:21;;;;;;;1.70;1.40;;;;;;;18.16;98.40;100442.75;4971124;28;20239;-76
2022/07/14 02:46:47;;;;;;;1.30;1.20;;;;;;;18.08;98.56;100437.81;4958530;28;20687;-77
2022/07/14 02:49:12;;;;;;;1.40;1.30;;;;;;;17.98;98.05;100441.69;4956818;28;20196;-76
2022/07/14 02:51:38;;;;;;;3.00;1.70;;;;;;;17.87;97.89;100446.41;4956578;28;20573;-76
2022/07/14 02:54:03;;;;;;;2.73;1.40;;;;;;;17.79;97.71;100452.81;4957795;28;20189;-74
2022/07/14 02:56:29;;;;;;;2.70;1.30;;;;;;;17.69;97.22;100456.69;4960485;28;20199;-74
2022/07/14 02:58:54;;;;;;;1.70;1.10;;;;;;;17.62;97.63;100452.56;4961149;28;20303;-76
2022/07/14 03:01:20;;;;;;;1.40;1.30;;;;;;;17.58;97.83;100456.19;4959222;28;20189;-75
2022/07/14 03:03:46;;;;;;;1.43;1.33;;;;;;;17.56;97.86;100447.53;4954972;28;20202;-75
2022/07/14 03:06:14;;;;;;;1.53;1.43;;;;;;;17.54;97.70;100450.22;4967436;28;20185;-76
2022/07/14 03:08:39;;;;;;;2.50;1.50;;;;;;;17.54;97.87;100444.13;4964456;28;20598;-74
2022/07/14 03:11:05;;;;;;;1.17;1.07;;;;;;;17.56;98.12;100451.00;4962550;28;20200;-74
2022/07/14 03:13:31;;;;;;;1.17;1.13;;;;;;;17.56;98.21;100453.63;4959417;28;20591;-75
2022/07/14 03:15:58;;;;;;;1.30;1.10;;;;;;;17.59;97.85;100452.66;4958657;28;20187;-75
2022/07/14 03:18:24;;;;;;;1.40;1.30;;;;;;;17.62;97.87;100447.31;4954674;28;20210;-75
2022/07/14 03:20:50;;;;;;;2.13;1.20;;;;;;;17.68;97.90;100450.56;4955112;28;20300;-74
2022/07/14 03:23:16;;;;;;;1.43;1.33;;;;;;;17.65;96.69;100450.69;4961087;28;20246;-74
2022/07/14 03:25:42;;;;;;;2.30;1.70;;;;;;;17.62;95.70;100453.41;4957965;28;20182;-75
2022/07/14 03:28:07;;;;;;;2.17;1.23;;;;;;;17.54;94.83;100457.22;4960206;28;20387;-74
2022/07/14 03:30:33;;;;;;;2.40;1.50;;;;;;;17.43;95.32;100450.59;4961583;28;20277;-76
2022/07/14 03:32:58;;;;;;;1.37;1.27;;;;;;;17.40;95.78;100453.28;4961325;28;20579;-76
2022/07/14 03:35:23;;;;;;;1.77;1.67;;;;;;;17.41;96.10;100456.78;4953556;28;20206;-75
2022/07/14 03:37:49;;;;;;;1.60;1.50;;;;;;;17.40;96.71;100453.28;4960663;28;20237;-76
2022/07/14 03:40:14;;;;;;;1.67;1.47;;;;;;;17.43;96.97;100453.19;4966610;28;21032;-74
2022/07/14 03:42:40;;;;;;;1.73;1.50;;;;;;;17.45;97.15;100458.41;4967845;28;20183;-75
2022/07/14 03:45:06;;;;;;;1.63;1.50;;;;;;;17.47;97.59;100459.19;4971880;28;20194;-74
2022/07/14 03:47:31;;;;;;;1.30;1.20;;;;;;;17.47;97.01;100462.66;4964095;28;20220;-76
2022/07/14 03:49:56;;;;;;;2.53;1.70;;;;;;;17.49;97.07;100466.06;4964919;28;20552;-75
2022/07/14 03:52:22;;;;;;;4.43;1.43;;;;;;;17.49;96.70;100463.47;4968984;28;20552;-75
2022/07/14 03:54:47;;;;;;;1.43;1.33;;;;;;;17.51;96.53;100468.63;4964343;28;20222;-75
2022/07/14 03:57:13;;;;;;;1.70;1.60;;;;;;;17.51;96.45;100456.41;4962414;28;20222;-76
2022/07/14 03:59:40;;;;;;;2.40;1.70;;;;;;;17.54;96.55;100465.91;4966136;28;20232;-74
2022/07/14 04:02:09;;;;;;;2.10;1.50;;;;;;;17.61;96.45;100464.81;4957741;28;20198;-74
2022/07/14 04:04:35;;;;;;;1.97;1.77;;;;;;;17.71;96.27;100461.84;4971467;28;20279;-77
2022/07/14 04:07:00;;;;;;;1.77;1.33;;;;;;;17.81;96.06;100457.97;4972103;28;20202;-77
2022/07/14 04:09:26;;;;;;;3.03;1.73;;;;;;;17.90;96.04;100460.28;4968250;28;20310;-75
2022/07/14 04:11:51;;;;;;;5.73;2.23;;;;;;;18.01;96.63;100461.66;4967295;28;20624;-74
2022/07/14 04:14:17;;;;;;;8.83;2.63;;;;;;;18.02;97.08;100472.06;4964609;28;20207;-75
2022/07/14 04:16:42;;;;;;;22.87;4.80;;;;;;;18.05;97.32;100465.88;4963723;28;20771;-75
2022/07/14 04:19:08;;;;;;;17.23;4.33;;;;;;;18.06;97.58;100468.44;4968083;28;20187;-75
2022/07/14 04:21:36;;;;;;;18.53;4.30;;;;;;;18.17;98.17;100475.03;4966725;28;20213;-75
2022/07/14 04:24:01;;;;;;;9.20;3.43;;;;;;;18.32;98.30;100478.84;4967203;28;20202;-76
2022/07/14 04:26:27;;;;;;;8.00;3.10;;;;;;;18.46;98.59;100479.16;4977225;28;20207;-75
2022/07/14 04:28:52;;;;;;;7.17;2.67;;;;;;;18.67;98.73;100471.38;4967154;28;20213;-78
2022/07/14 04:31:20;;;;;;;5.30;2.47;;;;;;;19.19;97.35;100474.50;4972537;28;20726;-76
2022/07/14 04:33:46;;;;;;;6.83;2.33;;;;;;;19.90;95.31;100475.00;4964291;28;20195;-76
2022/07/14 04:36:11;;;;;;;13.63;2.97;;;;;;;20.77;91.95;100477.13;4970996;28;20186;-75
2022/07/14 04:38:37;;;;;;;7.97;2.63;;;;;;;20.98;90.38;100475.22;4953352;28;20209;-75
2022/07/14 04:41:03;;;;;;;6.10;2.43;;;;;;;20.76;90.72;100477.22;4974374;28;20290;-75
2022/07/14 04:43:28;;;;;;;5.20;2.10;;;;;;;20.72;90.54;100479.13;4963468;28;20548;-76
2022/07/14 04:45:54;;;;;;;6.13;2.13;;;;;;;20.73;90.09;100469.44;4971138;28;20721;-75
2022/07/14 04:48:19;;;;;;;11.90;2.77;;;;;;;20.87;88.06;100474.91;4977787;28;20197;-77
2022/07/14 04:53:28;;;;;;;10.30;2.70;;;;;;;20.47;85.47;100476.81;4967028;28;20276;-77
2022/07/14 04:55:56;;;;;;;5.27;2.17;;;;;;;20.60;85.02;100483.19;4972202;28;20207;-76
2022/07/14 04:58:25;;;;;;;9.30;2.27;;;;;;;;;;4975211;28;20209;-76
2022/07/14 05:00:51;;;;;;;4.47;2.07;;;;;;;21.39;82.85;100466.16;4968601;28;20193;-77
2022/07/14 05:03:16;;;;;;;8.37;2.40;;;;;;;22.20;80.56;100473.34;4962318;28;20736;-75
2022/07/14 05:05:42;;;;;;;11.50;2.37;;;;;;;22.62;79.10;100470.19;4969676;28;20178;-76
2022/07/14 05:08:07;;;;;;;11.90;2.70;;;;;;;22.91;78.34;100468.53;4962924;28;20524;-76
2022/07/14 05:10:33;;;;;;;7.87;2.97;;;;;;;23.16;78.16;100464.44;4962462;28;20184;-77
2022/07/14 05:12:58;;;;;;;8.00;2.40;;;;;;;23.41;78.10;100463.88;4961901;28;20642;-77
2022/07/14 05:15:23;;;;;;;8.53;2.40;;;;;;;24.61;75.84;100467.09;4970126;28;20182;-75
2022/07/14 05:17:49;;;;;;;6.37;2.20;;;;;;;25.79;73.66;100468.00;4969818;28;20240;-73
2022/07/14 05:20:14;;;;;;;5.77;1.80;;;;;;;27.03;71.53;100461.75;4960946;28;20185;-76
2022/07/14 05:22:41;;;;;;;3.83;1.77;;;;;;;28.09;69.30;100461.63;4967299;28;20182;-73
2022/07/14 05:25:12;;;;;;;4.20;2.10;;;;;;;28.61;68.01;100459.19;4968427;28;20621;-75
2022/07/14 05:27:39;;;;;;;3.90;1.83;;;;;;;28.82;67.85;100456.59;4963361;28;20208;-74
2022/07/14 05:30:08;;;;;;;3.60;1.73;;;;;;;29.18;66.74;100462.47;4964023;28;20190;-74
2022/07/14 05:32:35;;;;;;;4.73;1.93;;;;;;;29.37;66.51;100450.25;4967752;28;20222;-75
2022/07/14 05:35:01;;;;;;;4.20;1.50;;;;;;;29.72;66.49;100453.50;4962996;28;20182;-75
2022/07/14 05:37:26;;;;;;;3.60;1.60;;;;;;;30.36;65.44;100454.13;4967955;28;20218;-74
2022/07/14 05:39:51;;;;;;;4.37;1.57;;;;;;;30.95;63.96;100449.63;4962990;28;20245;-76
2022/07/14 05:42:21;;;;;;;4.13;1.43;;;;;;;30.71;64.13;100447.38;4960530;28;20226;-76
2022/07/14 05:44:46;;;;;;;3.00;1.63;;;;;;;30.32;64.78;100452.69;4967110;28;20276;-76
2022/07/14 05:47:12;;;;;;;2.10;1.40;;;;;;;30.64;64.22;100457.81;4971416;28;20221;-75
2022/07/14 05:49:42;;;;;;;1.60;1.33;;;;;;;30.68;63.78;100442.34;4971623;28;20556;-75
2022/07/14 05:52:12;;;;;;;4.23;1.30;;;;;;;30.80;63.71;100453.72;4968226;28;20197;-75
2022/07/14 05:54:37;;;;;;;2.50;1.43;;;;;;;31.77;61.91;100441.97;4976308;28;20303;-75
2022/07/14 05:57:03;;;;;;;5.97;1.70;;;;;;;32.62;60.10;100446.22;4964273;28;20308;-75
2022/07/14 05:59:28;;;;;;;1.70;1.60;;;;;;;32.89;59.64;100436.41;4971766;28;20186;-76
2022/07/14 06:01:54;;;;;;;3.90;1.80;;;;;;;32.97;59.43;100431.13;4976328;28;20182;-75
2022/07/14 06:04:19;;;;;;;3.15;1.65;;;;;;;33.31;59.35;100433.97;4969788;28;20701;-76
2022/07/14 06:06:46;;;;;;;4.43;1.63;;;;;;;33.78;58.44;100425.50;4974040;28;20197;-75
2022/07/14 06:09:11;;;;;;;5.10;2.10;;;;;;;34.07;57.67;100426.13;4970008;28;20181;-76
2022/07/14 06:11:39;;;;;;;5.35;2.00;;;;;;;33.68;58.19;100422.94;4976194;28;20178;-76
2022/07/14 06:14:07;;;;;;;3.88;1.70;;;;;;;33.22;58.16;100425.03;4964019;28;20209;-75
2022/07/14 06:16:32;;;;;;;4.18;1.63;;;;;;;32.64;59.06;100427.31;4965813;28;20692;-74
2022/07/14 06:18:58;;;;;;;2.38;1.27;;;;;;;32.14;60.23;100421.47;4970620;28;20210;-75
2022/07/14 06:21:23;;;;;;;3.58;1.65;;;;;;;31.85;60.68;100418.97;4970337;28;20856;-76
2022/07/14 06:23:48;;;;;;;1.77;1.30;;;;;;;32.47;60.36;100424.47;4961289;28;20209;-75
2022/07/14 06:26:14;;;;;;;1.77;1.10;;;;;;;33.27;58.48;100406.66;4970445;28;20201;-76
2022/07/14 06:28:39;;;;;;;1.20;1.10;;;;;;;33.50;57.67;100398.91;4974844;28;20421;-74
2022/07/14 06:31:05;;;;;;;1.25;1.10;;;;;;;33.69;57.39;100405.84;4969290;28;20182;-74
2022/07/14 06:33:30;;;;;;;6.65;1.55;;;;;;;33.80;56.84;100393.16;4966825;28;20189;-75
2022/07/14 06:35:56;;;;;;;2.42;1.20;;;;;;;33.18;56.67;100402.25;4967954;28;20181;-77
2022/07/14 06:38:21;;;;;;;3.13;1.40;;;;;;;32.25;57.10;100404.31;4968378;28;20620;-75
2022/07/14 06:40:49;;;;;;;1.10;1.05;;;;;;;31.70;58.26;100402.56;4970423;28;20240;-77
2022/07/14 06:43:15;;;;;;;1.73;1.30;;;;;;;31.70;58.72;100410.59;4968748;28;20190;-77
2022/07/14 06:45:40;;;;;;;1.58;1.30;;;;;;;32.17;57.94;100406.94;4964590;28;20981;-75
2022/07/14 06:48:06;;;;;;;2.17;1.67;;;;;;;33.09;56.58;100404.88;4959635;28;20252;-75
2022/07/14 06:50:31;;;;;;;2.08;1.33;;;;;;;34.13;55.33;100404.81;4974820;28;20177;-76
2022/07/14 06:52:57;;;;;;;1.10;1.02;;;;;;;34.59;54.71;100403.53;4966460;28;20191;-77
2022/07/14 06:55:22;;;;;;;1.35;1.10;;;;;;;35.14;53.58;100398.41;4968705;28;20182;-76
2022/07/14 06:57:48;;;;;;;2.95;1.10;;;;;;;35.62;53.35;100393.91;4969929;28;20581;-73
2022/07/14 07:00:14;;;;;;;1.42;1.08;;;;;;;35.62;53.20;100390.38;4966553;28;20185;-76
2022/07/14 07:02:40;;;;;;;1.27;1.17;;;;;;;35.13;53.38;100392.22;4963174;28;20281;-75
2022/07/14 07:07:50;;;;;;;1.80;1.60;;;;;;;34.95;53.20;100389.72;4966101;28;20407;-77
2022/07/14 07:10:15;;;;;;;1.10;1.10;;;;;;;35.54;52.81;100393.94;4976515;28;20650;-76
2022/07/14 07:12:41;;;;;;;3.75;1.38;;;;;;;35.87;52.47;100385.66;4964890;28;20265;-76
2022/07/14 07:15:07;;;;;;;2.30;1.45;;;;;;;36.41;52.11;100397.44;4977519;28;20177;-77
2022/07/14 07:17:32;;;;;;;3.13;1.38;;;;;;;36.72;51.33;100389.25;4972582;28;20229;-78
2022/07/14 07:19:57;;;;;;;2.67;1.20;;;;;;;36.12;51.76;100390.94;4982892;28;20185;-77
2022/07/14 07:22:23;;;;;;;1.88;1.23;;;;;;;35.23;52.39;100384.78;4970786;28;20205;-74
2022/07/14 07:24:48;;;;;;;1.38;1.27;;;;;;;35.13;52.48;100380.59;4963643;28;20755;-77
2022/07/14 07:27:14;;;;;;;3.08;1.33;;;;;;;35.17;52.32;100387.31;4967324;28;20198;-75
2022/07/14 07:29:39;;;;;;;1.00;0.90;;;;;;;34.65;52.61;100384.03;4966215;28;20702;-77
2022/07/14 07:32:05;;;;;;;1.85;1.30;;;;;;;34.31;52.85;100382.34;4964856;28;20242;-76
2022/07/14 07:34:31;;;;;;;1.10;1.00;;;;;;;34.75;52.62;100379.34;4972356;28;20182;-75
2022/07/14 07:36:56;;;;;;;1.42;1.20;;;;;;;35.28;52.32;100373.50;4972610;28;20243;-77
2022/07/14 07:39:21;;;;;;;2.22;1.20;;;;;;;35.60;52.16;100378.94;4969738;28;20170;-77
2022/07/14 07:41:47;;;;;;;1.15;1.15;;;;;;;35.82;51.74;100374.63;4965615;28;20179;-75
2022/07/14 07:44:12;;;;;;;1.30;1.20;;;;;;;35.98;51.39;100374.53;4974192;28;20196;-75
2022/07/14 07:46:37;;;;;;;1.10;1.00;;;;;;;35.91;51.19;100368.16;4975776;28;20579;-74
2022/07/14 07:49:03;;;;;;;3.55;1.58;;;;;;;35.98;50.83;100368.31;4967462;28;20259;-77
2022/07/14 07:51:28;;;;;;;3.22;1.83;;;;;;;35.96;50.71;100362.25;4964042;28;20273;-74
2022/07/14 07:53:54;;;;;;;3.88;1.55;;;;;;;36.02;51.04;100356.16;4968279;28;20205;-75
2022/07/14 07:56:19;;;;;;;2.35;1.40;;;;;;;36.06;51.11;100353.94;4966718;28;20637;-77
2022/07/14 07:58:45;;;;;;;1.45;1.25;;;;;;;36.09;51.53;100356.28;4965576;28;20206;-76
2022/07/14 08:01:10;;;;;;;2.33;1.30;;;;;;;36.09;51.77;100348.19;4965949;28;20309;-76
2022/07/14 08:03:36;;;;;;;1.73;1.20;;;;;;;36.09;51.90;100356.28;4971118;28;20237;-75
2022/07/14 08:06:01;;;;;;;1.38;1.27;;;;;;;35.97;51.55;100345.94;4967493;28;20189;-75
2022/07/14 08:08:26;;;;;;;1.20;1.10;;;;;;;35.93;52.10;100346.41;4973187;28;20229;-76
2022/07/14 08:10:52;;;;;;;1.83;1.42;;;;;;;35.92;51.87;100342.06;4967788;28;20261;-77
2022/07/14 08:13:17;;;;;;;3.38;1.38;;;;;;;35.84;51.87;100338.41;4976783;28;20580;-75
2022/07/14 08:15:43;;;;;;;3.17;1.30;;;;;;;35.71;52.19;100336.28;4964099;28;20214;-77
2022/07/14 08:18:08;;;;;;;1.38;1.27;;;;;;;35.64;51.73;100329.09;4976221;28;20613;-75
2022/07/14 08:20:34;;;;;;;3.00;1.33;;;;;;;35.45;51.77;100338.47;4985780;28;20612;-74
2022/07/14 08:23:00;;;;;;;1.08;0.98;;;;;;;35.27;51.70;100326.06;4972770;28;20526;-74
2022/07/14 08:25:26;;;;;;;2.03;1.42;;;;;;;35.04;51.68;100324.16;4969440;28;20186;-75
2022/07/14 08:27:51;;;;;;;1.77;1.40;;;;;;;34.75;51.92;100322.03;4969467;28;20186;-73
2022/07/14 08:30:17;;;;;;;1.55;1.42;;;;;;;34.50;52.05;100317.53;4959482;28;20649;-74
2022/07/14 08:32:45;;;;;;;1.67;1.30;;;;;;;34.35;52.80;100320.06;4962999;28;20192;-73
2022/07/14 08:35:13;;;;;;;4.82;1.45;;;;;;;34.20;52.36;100311.00;4963823;28;20189;-74
2022/07/14 08:37:39;;;;;;;2.40;1.38;;;;;;;33.97;53.07;100308.97;4969256;28;20279;-73
2022/07/14 08:40:07;;;;;;;1.77;1.40;;;;;;;33.81;53.89;100301.72;4963212;28;20639;-75
2022/07/14 08:42:33;;;;;;;2.20;1.30;;;;;;;33.70;54.17;100299.38;4960112;28;20236;-77
2022/07/14 08:44:59;;;;;;;1.63;1.40;;;;;;;33.60;53.93;100294.13;4964428;28;20618;-75
2022/07/14 08:47:25;;;;;;;1.52;1.40;;;;;;;33.53;54.34;100291.28;4965870;28;20209;-76
2022/07/14 08:49:51;;;;;;;1.63;1.20;;;;;;;33.50;54.31;100290.78;4970914;28;20186;-78
2022/07/14 08:52:20;;;;;;;1.85;1.38;;;;;;;33.43;54.63;100283.38;4968877;28;20185;-77
2022/07/14 08:54:46;;;;;;;2.00;1.50;;;;;;;33.33;54.21;100279.13;4955729;28;20221;-76
2022/07/14 08:57:12;;;;;;;1.60;1.23;;;;;;;33.19;54.70;100285.97;4969004;28;20206;-75
2022/07/14 08:59:38;;;;;;;2.33;1.42;;;;;;;33.03;54.85;100281.34;4974998;28;20185;-75
2022/07/14 09:02:04;;;;;;;3.65;1.60;;;;;;;33.02;53.52;100288.56;4969687;28;20228;-76
2022/07/14 09:04:30;;;;;;;2.65;1.80;;;;;;;32.92;53.85;100282.47;4959819;28;20213;-75
2022/07/14 09:06:56;;;;;;;1.45;1.17;;;;;;;32.84;54.41;100283.28;4966338;28;20212;-78
2022/07/14 09:09:24;;;;;;;2.60;1.60;;;;;;;32.83;54.40;100284.25;4971910;28;20186;-74
2022/07/14 09:11:56;;;;;;;1.70;1.55;;;;;;;32.78;54.92;100282.03;4961497;28;20325;-77
2022/07/14 09:14:22;;;;;;;2.22;1.42;;;;;;;32.77;54.11;100272.31;4971501;28;20181;-74
2022/07/14 09:16:47;;;;;;;1.58;1.48;;;;;;;32.76;53.32;100277.84;4977043;28;20249;-74
2022/07/14 09:19:15;;;;;;;4.38;1.70;;;;;;;32.76;53.37;100277.84;4967344;28;20213;-77
2022/07/14 09:21:45;;;;;;;2.45;1.50;;;;;;;32.79;53.00;100275.69;4962836;28;20179;-75
2022/07/14 09:24:14;;;;;;;3.20;1.50;;;;;;;32.74;52.83;100272.66;4964208;28;20202;-76
2022/07/14 09:26:42;;;;;;;2.55;1.30;;;;;;;32.76;52.31;100269.81;4963060;28;20216;-75
2022/07/14 09:29:07;;;;;;;2.88;1.80;;;;;;;32.78;52.25;100274.00;4968933;28;20174;-74
2022/07/14 09:31:33;;;;;;;1.45;1.23;;;;;;;32.78;52.79;100265.97;4965326;28;20174;-75
2022/07/14 09:34:01;;;;;;;2.53;1.60;;;;;;;32.83;52.73;100271.72;4964723;28;20182;-76
2022/07/14 09:36:29;;;;;;;1.42;1.33;;;;;;;32.90;52.67;100268.41;4953660;28;20217;-75
2022/07/14 09:39:03;;;;;;;2.80;1.65;;;;;;;32.91;51.69;100270.06;4958967;28;20206;-75
2022/07/14 09:41:35;;;;;;;2.78;1.23;;;;;;;32.94;52.23;100267.06;4956361;28;20331;-76
2022/07/14 09:44:12;;;;;;;2.38;1.40;;;;;;;33.02;52.42;100260.91;4960119;28;20238;-76
2022/07/14 09:46:44;;;;;;;2.58;1.40;;;;;;;33.10;52.17;100272.50;4963510;28;20213;-76
2022/07/14 09:49:09;;;;;;;1.40;1.30;;;;;;;33.12;52.33;100258.94;4966298;28;20583;-76
2022/07/14 09:51:52;;;;;;;1.52;1.30;;;;;;;33.12;52.16;100259.78;4966773;28;20196;-75
2022/07/14 09:54:37;;;;;;;1.90;1.20;;;;;;;33.09;51.53;100265.47;4967358;28;20173;-76
2022/07/14 09:57:05;;;;;;;1.98;1.40;;;;;;;33.13;51.08;100256.09;4960110;28;20213;-76
2022/07/14 09:59:30;;;;;;;1.52;1.38;;;;;;;33.22;50.95;100250.75;4963059;28;20666;-76
2022/07/14 10:01:56;;;;;;;1.40;1.30;;;;;;;33.28;50.86;100250.09;4957934;28;20237;-77
2022/07/14 10:04:22;;;;;;;2.25;1.27;;;;;;;33.42;50.85;100254.03;4962851;28;20194;-75
2022/07/14 10:06:48;;;;;;;4.35;1.65;;;;;;;33.59;51.13;100249.53;4960011;28;20220;-76
2022/07/14 10:09:15;;;;;;;1.58;1.45;;;;;;;33.80;50.90;100246.38;4958667;28;20186;-77
2022/07/14 10:11:40;;;;;;;2.47;1.35;;;;;;;33.98;51.10;100242.72;4968255;28;20956;-76
2022/07/14 10:14:06;;;;;;;1.63;1.30;;;;;;;34.11;50.77;100251.09;4962752;28;20289;-76
2022/07/14 10:16:34;;;;;;;3.17;1.40;;;;;;;34.20;50.58;100241.19;4961585;28;20210;-76
2022/07/14 10:19:01;;;;;;;2.63;1.38;;;;;;;34.29;50.63;100242.81;4967411;28;20218;-76
2022/07/14 10:21:26;;;;;;;2.00;1.30;;;;;;;34.43;50.44;100245.84;4973766;28;20227;-76
2022/07/14 10:23:54;;;;;;;2.88;1.30;;;;;;;34.46;50.46;100235.63;4968704;28;20198;-76
2022/07/14 10:26:19;;;;;;;1.85;1.23;;;;;;;34.51;50.52;100232.41;4965316;28;20188;-76
2022/07/14 10:28:45;;;;;;;1.42;1.33;;;;;;;34.52;50.36;100226.03;4958359;28;20237;-78
2022/07/14 10:31:48;;;;;;;1.50;1.40;;;;;;;34.55;50.84;100225.69;4967406;28;21463;-77
2022/07/14 10:34:52;;;;;;;1.40;1.30;;;;;;;34.55;50.58;100224.84;4951608;28;20202;-77
2022/07/14 10:37:20;;;;;;;1.85;1.70;;;;;;;34.46;50.17;100218.66;4964075;28;20304;-75
2022/07/14 10:39:57;;;;;;;2.28;1.40;;;;;;;34.32;50.65;100217.50;4965728;28;20200;-74
2022/07/14 10:42:50;;;;;;;1.45;1.35;;;;;;;34.18;50.74;100217.19;4966056;28;20178;-77
2022/07/14 10:45:16;;;;;;;1.55;1.45;;;;;;;34.12;50.75;100208.94;4970217;28;20182;-77
2022/07/14 10:47:50;;;;;;;3.63;1.50;;;;;;;34.14;51.33;100209.63;4955285;28;20213;-77
2022/07/14 10:50:23;;;;;;;2.15;1.40;;;;;;;34.18;51.03;100197.53;4957738;28;20189;-76
2022/07/14 10:52:55;;;;;;;1.85;1.65;;;;;;;34.18;51.39;100194.84;4972537;28;20239;-75
2022/07/14 10:55:29;;;;;;;2.08;1.55;;;;;;;34.16;51.10;100191.50;4964258;28;20234;-76
2022/07/14 10:58:03;;;;;;;2.63;1.48;;;;;;;34.15;50.62;100182.63;4961819;28;20740;-77
2022/07/14 11:00:43;;;;;;;2.20;1.40;;;;;;;34.17;50.94;100185.13;4959925;28;20244;-75
2022/07/14 11:03:49;;;;;;;1.40;1.30;;;;;;;34.22;50.92;100179.22;4962874;28;20294;-76
2022/07/14 11:06:18;;;;;;;2.65;1.48;;;;;;;34.28;50.92;100187.44;4954382;28;20189;-78
2022/07/14 11:09:05;;;;;;;2.15;1.20;;;;;;;34.23;50.67;100176.38;4965628;28;20263;-77
2022/07/14 11:11:32;;;;;;;1.65;1.25;;;;;;;34.21;51.00;100178.41;4975854;28;20181;-77
2022/07/14 11:14:47;;;;;;;1.67;1.58;;;;;;;34.21;50.86;100181.09;4965024;28;20193;-76
2022/07/14 11:16:56;;;;;;;2.50;1.30;;;;;;;34.16;51.27;100172.69;4963290;28;20214;-76
2022/07/14 11:19:30;;;;;;;2.15;1.60;;;;;;;34.12;50.81;100166.00;4966391;28;20313;-74
2022/07/14 11:22:12;;;;;;;1.75;1.40;;;;;;;34.10;50.75;100166.16;4964250;28;20184;-76
2022/07/14 11:24:54;;;;;;;1.40;1.30;;;;;;;34.27;50.85;100166.97;4960762;28;20221;-76
2022/07/14 11:27:29;;;;;;;1.50;1.40;;;;;;;34.34;50.78;100165.28;4983338;28;20206;-76
2022/07/14 11:30:16;;;;;;;1.77;1.17;;;;;;;34.27;50.72;100161.59;4982630;28;20184;-74
2022/07/14 11:32:42;;;;;;;1.92;1.30;;;;;;;34.14;50.77;100147.84;4981819;28;20578;-76
2022/07/14 11:37:59;;;;;;;3.38;1.48;;;;;;;33.93;50.50;100146.59;4961673;28;20582;-75